sensor_id;sensor_type;location;lat;lon;timestamp;P1;durP1;ratioP1;P2;durP2;ratioP2
77854;SDS011;67046;50.088;14.336;2023-02-20T00:00:25;4.90;;;3.20;;
77854;SDS011;67046;50.088;14.336;2023-02-20T00:01:20;5.30;;;3.20;;
77854;SDS011;67046;50.088;14.336;2023-02-20T00:01:54;5.10;;;3.40;;
77854;SDS011;67046;50.088;14.336;2023-02-20T00:02:27;4.80;;;3.60;;
77854;SDS011;67046;50.088;14.336;2023-02-20T00:03:01;5.20;;;3.20;;
77854;SDS011;67046;50.088;14.336;2023-02-20T00:03:34;5.60;;;3.40;;
77854;SDS011;67046;50.088;14.336;2023-02-20T00:04:06;5.50;;;4.00;;
77854;SDS011;67046;50.088;14.336;2023-02-20T00:04:38;5.20;;;3.50;;
77854;SDS011;67046;50.088;14.336;2023-02-20T00:05:11;7.50;;;4.90;;
77854;SDS011;67046;50.088;14.336;2023-02-20T00:05:43;6.50;;;4.30;;
77854;SDS011;67046;50.088;14.336;2023-02-20T00:06:15;9.10;;;4.80;;
77854;SDS011;67046;50.088;14.336;2023-02-20T00:06:48;6.80;;;4.30;;
77854;SDS011;67046;50.088;14.336;2023-02-20T00:07:20;6.10;;;4.40;;
77854;SDS011;67046;50.088;14.336;2023-02-20T00:07:52;6.10;;;4.40;;
77854;SDS011;67046;50.088;14.336;2023-02-20T00:08:24;7.60;;;4.80;;
77854;SDS011;67046;50.088;14.336;2023-02-20T00:08:56;5.30;;;3.60;;
77854;SDS011;67046;50.088;14.336;2023-02-20T00:09:28;6.60;;;4.20;;
77854;SDS011;67046;50.088;14.336;2023-02-20T00:10:00;4.80;;;3.50;;
77854;SDS011;67046;50.088;14.336;2023-02-20T00:10:32;6.00;;;3.90;;
77854;SDS011;67046;50.088;14.336;2023-02-20T00:11:04;4.80;;;3.20;;
77854;SDS011;67046;50.088;14.336;2023-02-20T00:11:37;5.70;;;3.70;;
77854;SDS011;67046;50.088;14.336;2023-02-20T00:12:10;5.30;;;4.10;;
77854;SDS011;67046;50.088;14.336;2023-02-20T00:12:42;6.60;;;4.00;;
77854;SDS011;67046;50.088;14.336;2023-02-20T00:13:46;7.00;;;3.80;;
77854;SDS011;67046;50.088;14.336;2023-02-20T00:14:19;6.70;;;3.60;;
77854;SDS011;67046;50.088;14.336;2023-02-20T00:14:51;7.50;;;3.90;;
77854;SDS011;67046;50.088;14.336;2023-02-20T00:15:23;5.40;;;4.10;;
77854;SDS011;67046;50.088;14.336;2023-02-20T00:15:55;5.30;;;3.90;;
77854;SDS011;67046;50.088;14.336;2023-02-20T00:16:27;8.00;;;4.10;;
77854;SDS011;67046;50.088;14.336;2023-02-20T00:16:59;5.10;;;3.10;;
77854;SDS011;67046;50.088;14.336;2023-02-20T00:17:31;5.60;;;3.90;;
77854;SDS011;67046;50.088;14.336;2023-02-20T00:18:03;5.30;;;3.50;;
77854;SDS011;67046;50.088;14.336;2023-02-20T00:18:37;6.70;;;4.10;;
77854;SDS011;67046;50.088;14.336;2023-02-20T00:19:09;6.60;;;4.10;;
77854;SDS011;67046;50.088;14.336;2023-02-20T00:19:41;6.10;;;4.20;;
77854;SDS011;67046;50.088;14.336;2023-02-20T00:20:17;6.10;;;3.80;;
77854;SDS011;67046;50.088;14.336;2023-02-20T00:20:51;5.80;;;4.00;;
77854;SDS011;67046;50.088;14.336;2023-02-20T00:21:23;5.50;;;4.10;;
77854;SDS011;67046;50.088;14.336;2023-02-20T00:21:55;7.00;;;4.20;;
77854;SDS011;67046;50.088;14.336;2023-02-20T00:22:27;6.40;;;4.20;;
77854;SDS011;67046;50.088;14.336;2023-02-20T00:22:59;6.60;;;4.10;;
77854;SDS011;67046;50.088;14.336;2023-02-20T00:23:33;7.50;;;4.20;;
77854;SDS011;67046;50.088;14.336;2023-02-20T00:24:06;6.50;;;4.50;;
77854;SDS011;67046;50.088;14.336;2023-02-20T00:24:38;5.60;;;4.30;;
77854;SDS011;67046;50.088;14.336;2023-02-20T00:25:10;5.80;;;4.40;;
77854;SDS011;67046;50.088;14.336;2023-02-20T00:26:14;6.80;;;3.50;;
77854;SDS011;67046;50.088;14.336;2023-02-20T00:26:47;4.90;;;3.90;;
77854;SDS011;67046;50.088;14.336;2023-02-20T00:27:19;5.60;;;3.70;;
77854;SDS011;67046;50.088;14.336;2023-02-20T00:28:24;5.00;;;3.60;;
77854;SDS011;67046;50.088;14.336;2023-02-20T00:28:56;5.50;;;3.50;;
77854;SDS011;67046;50.088;14.336;2023-02-20T00:29:28;5.60;;;3.80;;
77854;SDS011;67046;50.088;14.336;2023-02-20T00:30:00;5.10;;;3.70;;
77854;SDS011;67046;50.088;14.336;2023-02-20T00:30:32;6.40;;;3.90;;
77854;SDS011;67046;50.088;14.336;2023-02-20T00:31:05;7.70;;;4.20;;
77854;SDS011;67046;50.088;14.336;2023-02-20T00:31:38;5.80;;;4.40;;
77854;SDS011;67046;50.088;14.336;2023-02-20T00:32:10;6.70;;;4.10;;
77854;SDS011;67046;50.088;14.336;2023-02-20T00:32:42;6.10;;;3.90;;
77854;SDS011;67046;50.088;14.336;2023-02-20T00:33:14;7.20;;;4.60;;
77854;SDS011;67046;50.088;14.336;2023-02-20T00:33:46;7.10;;;4.30;;
77854;SDS011;67046;50.088;14.336;2023-02-20T00:34:19;7.30;;;4.60;;
77854;SDS011;67046;50.088;14.336;2023-02-20T00:34:52;6.10;;;3.90;;
77854;SDS011;67046;50.088;14.336;2023-02-20T00:35:24;7.20;;;4.30;;
77854;SDS011;67046;50.088;14.336;2023-02-20T00:35:58;5.00;;;3.80;;
77854;SDS011;67046;50.088;14.336;2023-02-20T00:36:30;6.50;;;4.50;;
77854;SDS011;67046;50.088;14.336;2023-02-20T00:37:03;7.00;;;4.50;;
77854;SDS011;67046;50.088;14.336;2023-02-20T00:37:35;5.20;;;4.30;;
77854;SDS011;67046;50.088;14.336;2023-02-20T00:38:08;6.30;;;5.00;;
77854;SDS011;67046;50.088;14.336;2023-02-20T00:38:41;5.50;;;4.30;;
77854;SDS011;67046;50.088;14.336;2023-02-20T00:39:14;7.50;;;4.60;;
77854;SDS011;67046;50.088;14.336;2023-02-20T00:39:46;8.20;;;4.30;;
77854;SDS011;67046;50.088;14.336;2023-02-20T00:40:19;6.60;;;4.30;;
77854;SDS011;67046;50.088;14.336;2023-02-20T00:40:52;5.10;;;4.00;;
77854;SDS011;67046;50.088;14.336;2023-02-20T00:41:24;4.40;;;3.60;;
77854;SDS011;67046;50.088;14.336;2023-02-20T00:41:56;7.70;;;4.50;;
77854;SDS011;67046;50.088;14.336;2023-02-20T00:42:29;7.50;;;4.50;;
77854;SDS011;67046;50.088;14.336;2023-02-20T00:43:01;7.30;;;4.80;;
77854;SDS011;67046;50.088;14.336;2023-02-20T00:44:07;4.70;;;3.90;;
77854;SDS011;67046;50.088;14.336;2023-02-20T00:44:40;7.20;;;4.20;;
77854;SDS011;67046;50.088;14.336;2023-02-20T00:45:12;6.90;;;4.40;;
77854;SDS011;67046;50.088;14.336;2023-02-20T00:45:46;7.60;;;4.30;;
77854;SDS011;67046;50.088;14.336;2023-02-20T00:46:50;8.20;;;4.50;;
77854;SDS011;67046;50.088;14.336;2023-02-20T00:47:22;5.80;;;4.30;;
77854;SDS011;67046;50.088;14.336;2023-02-20T00:47:54;6.40;;;4.30;;
77854;SDS011;67046;50.088;14.336;2023-02-20T00:48:26;5.40;;;4.00;;
77854;SDS011;67046;50.088;14.336;2023-02-20T00:48:58;6.60;;;4.10;;
77854;SDS011;67046;50.088;14.336;2023-02-20T00:49:30;6.50;;;4.00;;
77854;SDS011;67046;50.088;14.336;2023-02-20T00:50:03;6.50;;;5.20;;
77854;SDS011;67046;50.088;14.336;2023-02-20T00:50:36;7.20;;;4.60;;
77854;SDS011;67046;50.088;14.336;2023-02-20T00:51:08;6.40;;;4.60;;
77854;SDS011;67046;50.088;14.336;2023-02-20T00:51:40;5.80;;;4.20;;
77854;SDS011;67046;50.088;14.336;2023-02-20T00:52:12;6.50;;;4.30;;
77854;SDS011;67046;50.088;14.336;2023-02-20T00:52:44;8.90;;;4.40;;
77854;SDS011;67046;50.088;14.336;2023-02-20T00:53:16;7.00;;;4.60;;
77854;SDS011;67046;50.088;14.336;2023-02-20T00:53:48;9.10;;;4.40;;
77854;SDS011;67046;50.088;14.336;2023-02-20T00:54:20;6.20;;;3.80;;
77854;SDS011;67046;50.088;14.336;2023-02-20T00:54:52;4.90;;;4.00;;
77854;SDS011;67046;50.088;14.336;2023-02-20T00:55:24;6.20;;;4.40;;
77854;SDS011;67046;50.088;14.336;2023-02-20T00:55:56;7.00;;;4.50;;
77854;SDS011;67046;50.088;14.336;2023-02-20T00:56:28;6.20;;;4.00;;
77854;SDS011;67046;50.088;14.336;2023-02-20T00:57:00;7.50;;;4.40;;
77854;SDS011;67046;50.088;14.336;2023-02-20T00:57:32;6.20;;;5.10;;
77854;SDS011;67046;50.088;14.336;2023-02-20T00:58:04;7.60;;;5.20;;
77854;SDS011;67046;50.088;14.336;2023-02-20T00:58:36;5.40;;;4.30;;
77854;SDS011;67046;50.088;14.336;2023-02-20T00:59:08;6.70;;;4.70;;
77854;SDS011;67046;50.088;14.336;2023-02-20T00:59:40;5.80;;;4.70;;
77854;SDS011;67046;50.088;14.336;2023-02-20T01:00:22;5.90;;;4.80;;
77854;SDS011;67046;50.088;14.336;2023-02-20T01:00:59;5.50;;;3.80;;
77854;SDS011;67046;50.088;14.336;2023-02-20T01:01:31;8.30;;;4.30;;
77854;SDS011;67046;50.088;14.336;2023-02-20T01:02:04;7.50;;;4.10;;
77854;SDS011;67046;50.088;14.336;2023-02-20T01:02:35;5.90;;;4.00;;
77854;SDS011;67046;50.088;14.336;2023-02-20T01:03:07;7.10;;;4.40;;
77854;SDS011;67046;50.088;14.336;2023-02-20T01:03:39;5.90;;;4.20;;
77854;SDS011;67046;50.088;14.336;2023-02-20T01:04:11;6.00;;;4.00;;
77854;SDS011;67046;50.088;14.336;2023-02-20T01:04:43;8.70;;;4.40;;
77854;SDS011;67046;50.088;14.336;2023-02-20T01:05:15;5.30;;;3.70;;
77854;SDS011;67046;50.088;14.336;2023-02-20T01:05:47;5.80;;;4.00;;
77854;SDS011;67046;50.088;14.336;2023-02-20T01:06:19;7.30;;;3.90;;
77854;SDS011;67046;50.088;14.336;2023-02-20T01:06:51;6.00;;;3.60;;
77854;SDS011;67046;50.088;14.336;2023-02-20T01:07:55;6.50;;;4.20;;
77854;SDS011;67046;50.088;14.336;2023-02-20T01:08:27;5.90;;;3.70;;
77854;SDS011;67046;50.088;14.336;2023-02-20T01:08:59;7.20;;;4.40;;
77854;SDS011;67046;50.088;14.336;2023-02-20T01:09:31;6.90;;;3.80;;
77854;SDS011;67046;50.088;14.336;2023-02-20T01:10:03;6.50;;;4.30;;
77854;SDS011;67046;50.088;14.336;2023-02-20T01:10:35;6.30;;;3.60;;
77854;SDS011;67046;50.088;14.336;2023-02-20T01:11:07;6.10;;;3.90;;
77854;SDS011;67046;50.088;14.336;2023-02-20T01:11:42;5.70;;;4.00;;
77854;SDS011;67046;50.088;14.336;2023-02-20T01:12:15;6.00;;;3.70;;
77854;SDS011;67046;50.088;14.336;2023-02-20T01:13:19;5.90;;;3.40;;
77854;SDS011;67046;50.088;14.336;2023-02-20T01:13:51;4.90;;;3.60;;
77854;SDS011;67046;50.088;14.336;2023-02-20T01:14:23;6.60;;;4.40;;
77854;SDS011;67046;50.088;14.336;2023-02-20T01:14:55;5.80;;;4.20;;
77854;SDS011;67046;50.088;14.336;2023-02-20T01:15:27;5.70;;;3.90;;
77854;SDS011;67046;50.088;14.336;2023-02-20T01:15:59;5.70;;;3.90;;
77854;SDS011;67046;50.088;14.336;2023-02-20T01:16:31;7.50;;;4.40;;
77854;SDS011;67046;50.088;14.336;2023-02-20T01:17:03;5.90;;;4.60;;
77854;SDS011;67046;50.088;14.336;2023-02-20T01:17:35;5.40;;;4.20;;
77854;SDS011;67046;50.088;14.336;2023-02-20T01:18:07;5.40;;;3.80;;
77854;SDS011;67046;50.088;14.336;2023-02-20T01:19:11;7.00;;;3.80;;
77854;SDS011;67046;50.088;14.336;2023-02-20T01:19:43;5.70;;;3.70;;
77854;SDS011;67046;50.088;14.336;2023-02-20T01:20:15;6.00;;;4.40;;
77854;SDS011;67046;50.088;14.336;2023-02-20T01:20:47;6.50;;;4.30;;
77854;SDS011;67046;50.088;14.336;2023-02-20T01:21:19;5.50;;;3.80;;
77854;SDS011;67046;50.088;14.336;2023-02-20T01:21:52;6.00;;;4.70;;
77854;SDS011;67046;50.088;14.336;2023-02-20T01:22:56;5.40;;;3.40;;
77854;SDS011;67046;50.088;14.336;2023-02-20T01:23:28;5.00;;;3.70;;
77854;SDS011;67046;50.088;14.336;2023-02-20T01:24:00;4.50;;;3.50;;
77854;SDS011;67046;50.088;14.336;2023-02-20T01:24:32;5.20;;;3.40;;
77854;SDS011;67046;50.088;14.336;2023-02-20T01:25:04;5.80;;;3.20;;
77854;SDS011;67046;50.088;14.336;2023-02-20T01:26:08;5.00;;;3.00;;
77854;SDS011;67046;50.088;14.336;2023-02-20T01:26:41;6.00;;;3.50;;
77854;SDS011;67046;50.088;14.336;2023-02-20T01:27:14;5.80;;;3.70;;
77854;SDS011;67046;50.088;14.336;2023-02-20T01:27:47;6.80;;;3.90;;
77854;SDS011;67046;50.088;14.336;2023-02-20T01:28:19;6.00;;;3.70;;
77854;SDS011;67046;50.088;14.336;2023-02-20T01:28:51;5.70;;;4.20;;
77854;SDS011;67046;50.088;14.336;2023-02-20T01:29:22;5.00;;;3.50;;
77854;SDS011;67046;50.088;14.336;2023-02-20T01:29:54;8.00;;;4.10;;
77854;SDS011;67046;50.088;14.336;2023-02-20T01:30:26;6.20;;;3.80;;
77854;SDS011;67046;50.088;14.336;2023-02-20T01:30:58;6.90;;;3.90;;
77854;SDS011;67046;50.088;14.336;2023-02-20T01:31:30;5.90;;;3.80;;
77854;SDS011;67046;50.088;14.336;2023-02-20T01:32:02;6.90;;;4.10;;
77854;SDS011;67046;50.088;14.336;2023-02-20T01:33:07;4.60;;;3.20;;
77854;SDS011;67046;50.088;14.336;2023-02-20T01:33:39;6.90;;;3.80;;
77854;SDS011;67046;50.088;14.336;2023-02-20T01:34:15;5.60;;;3.30;;
77854;SDS011;67046;50.088;14.336;2023-02-20T01:34:47;7.40;;;3.90;;
77854;SDS011;67046;50.088;14.336;2023-02-20T01:35:19;6.10;;;3.80;;
77854;SDS011;67046;50.088;14.336;2023-02-20T01:35:51;6.80;;;3.80;;
77854;SDS011;67046;50.088;14.336;2023-02-20T01:36:23;4.60;;;3.60;;
77854;SDS011;67046;50.088;14.336;2023-02-20T01:36:56;5.20;;;3.60;;
77854;SDS011;67046;50.088;14.336;2023-02-20T01:37:28;5.20;;;3.40;;
77854;SDS011;67046;50.088;14.336;2023-02-20T01:38:00;4.90;;;3.60;;
77854;SDS011;67046;50.088;14.336;2023-02-20T01:38:38;5.50;;;3.30;;
77854;SDS011;67046;50.088;14.336;2023-02-20T01:39:11;5.30;;;4.00;;
77854;SDS011;67046;50.088;14.336;2023-02-20T01:39:45;6.00;;;3.40;;
77854;SDS011;67046;50.088;14.336;2023-02-20T01:40:19;4.30;;;3.00;;
77854;SDS011;67046;50.088;14.336;2023-02-20T01:40:52;3.70;;;3.00;;
77854;SDS011;67046;50.088;14.336;2023-02-20T01:41:24;4.50;;;2.70;;
77854;SDS011;67046;50.088;14.336;2023-02-20T01:41:58;4.80;;;3.10;;
77854;SDS011;67046;50.088;14.336;2023-02-20T01:42:32;5.40;;;2.90;;
77854;SDS011;67046;50.088;14.336;2023-02-20T01:43:05;5.00;;;2.90;;
77854;SDS011;67046;50.088;14.336;2023-02-20T01:43:37;4.40;;;3.30;;
77854;SDS011;67046;50.088;14.336;2023-02-20T01:44:19;5.90;;;3.10;;
77854;SDS011;67046;50.088;14.336;2023-02-20T01:45:53;4.70;;;3.00;;
77854;SDS011;67046;50.088;14.336;2023-02-20T01:47:00;4.60;;;3.20;;
77854;SDS011;67046;50.088;14.336;2023-02-20T01:47:36;4.40;;;3.20;;
77854;SDS011;67046;50.088;14.336;2023-02-20T01:48:18;4.70;;;3.10;;
77854;SDS011;67046;50.088;14.336;2023-02-20T01:50:17;4.10;;;2.90;;
77854;SDS011;67046;50.088;14.336;2023-02-20T01:50:53;4.20;;;2.50;;
77854;SDS011;67046;50.088;14.336;2023-02-20T01:51:30;4.90;;;2.60;;
77854;SDS011;67046;50.088;14.336;2023-02-20T01:52:09;3.20;;;2.50;;
77854;SDS011;67046;50.088;14.336;2023-02-20T01:52:51;3.30;;;2.20;;
77854;SDS011;67046;50.088;14.336;2023-02-20T01:53:26;4.50;;;2.30;;
77854;SDS011;67046;50.088;14.336;2023-02-20T01:54:01;3.00;;;2.50;;
77854;SDS011;67046;50.088;14.336;2023-02-20T01:54:35;3.70;;;2.50;;
77854;SDS011;67046;50.088;14.336;2023-02-20T01:55:12;4.20;;;2.30;;
77854;SDS011;67046;50.088;14.336;2023-02-20T01:55:52;5.70;;;3.80;;
77854;SDS011;67046;50.088;14.336;2023-02-20T01:56:33;4.20;;;2.60;;
77854;SDS011;67046;50.088;14.336;2023-02-20T01:57:05;3.90;;;2.60;;
77854;SDS011;67046;50.088;14.336;2023-02-20T01:57:41;5.10;;;3.00;;
77854;SDS011;67046;50.088;14.336;2023-02-20T01:58:20;4.70;;;3.70;;
77854;SDS011;67046;50.088;14.336;2023-02-20T01:58:55;4.90;;;3.10;;
77854;SDS011;67046;50.088;14.336;2023-02-20T01:59:28;4.80;;;3.10;;
77854;SDS011;67046;50.088;14.336;2023-02-20T02:00:04;4.10;;;2.90;;
77854;SDS011;67046;50.088;14.336;2023-02-20T02:01:12;4.30;;;2.90;;
77854;SDS011;67046;50.088;14.336;2023-02-20T02:01:44;5.70;;;3.40;;
77854;SDS011;67046;50.088;14.336;2023-02-20T02:03:51;4.80;;;3.00;;
77854;SDS011;67046;50.088;14.336;2023-02-20T02:04:28;4.40;;;3.30;;
77854;SDS011;67046;50.088;14.336;2023-02-20T02:05:00;4.90;;;3.20;;
77854;SDS011;67046;50.088;14.336;2023-02-20T02:05:33;4.10;;;2.70;;
77854;SDS011;67046;50.088;14.336;2023-02-20T02:06:07;4.40;;;3.50;;
77854;SDS011;67046;50.088;14.336;2023-02-20T02:06:43;3.90;;;3.00;;
77854;SDS011;67046;50.088;14.336;2023-02-20T02:07:19;5.70;;;3.20;;
77854;SDS011;67046;50.088;14.336;2023-02-20T02:07:51;5.80;;;3.40;;
77854;SDS011;67046;50.088;14.336;2023-02-20T02:08:23;4.30;;;3.10;;
77854;SDS011;67046;50.088;14.336;2023-02-20T02:08:57;5.40;;;3.20;;
77854;SDS011;67046;50.088;14.336;2023-02-20T02:11:10;4.80;;;3.00;;
77854;SDS011;67046;50.088;14.336;2023-02-20T02:11:24;4.90;;;3.20;;
77854;SDS011;67046;50.088;14.336;2023-02-20T02:11:58;6.70;;;3.60;;
77854;SDS011;67046;50.088;14.336;2023-02-20T02:12:30;4.50;;;3.40;;
77854;SDS011;67046;50.088;14.336;2023-02-20T02:13:02;5.30;;;3.50;;
77854;SDS011;67046;50.088;14.336;2023-02-20T02:13:36;4.30;;;3.10;;
77854;SDS011;67046;50.088;14.336;2023-02-20T02:14:09;5.80;;;3.60;;
77854;SDS011;67046;50.088;14.336;2023-02-20T02:14:41;5.20;;;3.70;;
77854;SDS011;67046;50.088;14.336;2023-02-20T02:15:14;5.70;;;4.00;;
77854;SDS011;67046;50.088;14.336;2023-02-20T02:15:51;6.00;;;3.40;;
77854;SDS011;67046;50.088;14.336;2023-02-20T02:25:17;6.20;;;3.50;;
77854;SDS011;67046;50.088;14.336;2023-02-20T02:34:19;6.10;;;3.80;;
77854;SDS011;67046;50.088;14.336;2023-02-20T02:36:59;4.50;;;3.00;;
77854;SDS011;67046;50.088;14.336;2023-02-20T02:39:03;6.00;;;3.70;;
77854;SDS011;67046;50.088;14.336;2023-02-20T02:39:58;4.90;;;3.30;;
77854;SDS011;67046;50.088;14.336;2023-02-20T02:40:54;6.30;;;4.10;;
77854;SDS011;67046;50.088;14.336;2023-02-20T02:42:38;6.10;;;3.80;;
77854;SDS011;67046;50.088;14.336;2023-02-20T02:45:11;6.00;;;3.60;;
77854;SDS011;67046;50.088;14.336;2023-02-20T02:45:55;5.50;;;3.70;;
77854;SDS011;67046;50.088;14.336;2023-02-20T02:48:19;4.20;;;2.70;;
77854;SDS011;67046;50.088;14.336;2023-02-20T02:49:03;4.80;;;3.00;;
77854;SDS011;67046;50.088;14.336;2023-02-20T02:49:45;5.40;;;3.40;;
77854;SDS011;67046;50.088;14.336;2023-02-20T02:51:02;6.30;;;4.20;;
77854;SDS011;67046;50.088;14.336;2023-02-20T02:51:47;6.20;;;3.60;;
77854;SDS011;67046;50.088;14.336;2023-02-20T02:52:21;6.40;;;3.90;;
77854;SDS011;67046;50.088;14.336;2023-02-20T02:53:19;4.70;;;3.30;;
77854;SDS011;67046;50.088;14.336;2023-02-20T02:54:10;5.90;;;3.80;;
77854;SDS011;67046;50.088;14.336;2023-02-20T02:54:48;6.40;;;4.20;;
77854;SDS011;67046;50.088;14.336;2023-02-20T02:55:30;6.50;;;4.10;;
77854;SDS011;67046;50.088;14.336;2023-02-20T02:56:07;6.60;;;4.00;;
77854;SDS011;67046;50.088;14.336;2023-02-20T02:56:53;6.80;;;4.20;;
77854;SDS011;67046;50.088;14.336;2023-02-20T02:57:53;5.50;;;3.90;;
77854;SDS011;67046;50.088;14.336;2023-02-20T02:58:25;8.10;;;4.60;;
77854;SDS011;67046;50.088;14.336;2023-02-20T02:58:57;5.30;;;3.80;;
77854;SDS011;67046;50.088;14.336;2023-02-20T02:59:30;6.00;;;4.20;;
77854;SDS011;67046;50.088;14.336;2023-02-20T03:00:05;5.80;;;3.70;;
77854;SDS011;67046;50.088;14.336;2023-02-20T03:00:58;6.40;;;4.20;;
77854;SDS011;67046;50.088;14.336;2023-02-20T03:01:34;6.80;;;4.20;;
77854;SDS011;67046;50.088;14.336;2023-02-20T03:02:49;5.00;;;3.20;;
77854;SDS011;67046;50.088;14.336;2023-02-20T03:03:34;6.60;;;3.80;;
77854;SDS011;67046;50.088;14.336;2023-02-20T03:04:11;5.20;;;3.60;;
77854;SDS011;67046;50.088;14.336;2023-02-20T03:04:45;6.10;;;3.90;;
77854;SDS011;67046;50.088;14.336;2023-02-20T03:05:21;5.00;;;3.90;;
77854;SDS011;67046;50.088;14.336;2023-02-20T03:06:33;6.20;;;3.90;;
77854;SDS011;67046;50.088;14.336;2023-02-20T03:07:12;5.10;;;3.50;;
77854;SDS011;67046;50.088;14.336;2023-02-20T03:07:48;5.90;;;3.80;;
77854;SDS011;67046;50.088;14.336;2023-02-20T03:09:30;6.80;;;3.60;;
77854;SDS011;67046;50.088;14.336;2023-02-20T03:10:06;6.80;;;4.20;;
77854;SDS011;67046;50.088;14.336;2023-02-20T03:10:42;5.50;;;3.90;;
77854;SDS011;67046;50.088;14.336;2023-02-20T03:11:15;6.50;;;4.10;;
77854;SDS011;67046;50.088;14.336;2023-02-20T03:11:53;7.40;;;4.70;;
77854;SDS011;67046;50.088;14.336;2023-02-20T03:12:27;5.80;;;4.40;;
77854;SDS011;67046;50.088;14.336;2023-02-20T03:13:01;6.60;;;4.00;;
77854;SDS011;67046;50.088;14.336;2023-02-20T03:13:41;5.80;;;4.20;;
77854;SDS011;67046;50.088;14.336;2023-02-20T03:14:40;7.50;;;4.20;;
77854;SDS011;67046;50.088;14.336;2023-02-20T03:15:44;7.00;;;3.80;;
77854;SDS011;67046;50.088;14.336;2023-02-20T03:16:24;6.00;;;3.60;;
77854;SDS011;67046;50.088;14.336;2023-02-20T03:17:05;5.80;;;3.90;;
77854;SDS011;67046;50.088;14.336;2023-02-20T03:17:46;5.60;;;4.00;;
77854;SDS011;67046;50.088;14.336;2023-02-20T03:18:31;6.70;;;4.40;;
77854;SDS011;67046;50.088;14.336;2023-02-20T03:19:10;5.30;;;3.90;;
77854;SDS011;67046;50.088;14.336;2023-02-20T03:19:46;6.90;;;4.40;;
77854;SDS011;67046;50.088;14.336;2023-02-20T03:20:21;6.40;;;4.60;;
77854;SDS011;67046;50.088;14.336;2023-02-20T03:21:29;5.80;;;3.50;;
77854;SDS011;67046;50.088;14.336;2023-02-20T03:22:05;5.80;;;3.70;;
77854;SDS011;67046;50.088;14.336;2023-02-20T03:22:45;7.30;;;4.00;;
77854;SDS011;67046;50.088;14.336;2023-02-20T03:23:23;5.30;;;3.80;;
77854;SDS011;67046;50.088;14.336;2023-02-20T03:24:02;5.20;;;3.70;;
77854;SDS011;67046;50.088;14.336;2023-02-20T03:24:35;5.50;;;3.40;;
77854;SDS011;67046;50.088;14.336;2023-02-20T03:25:30;6.90;;;4.20;;
77854;SDS011;67046;50.088;14.336;2023-02-20T03:26:08;5.40;;;3.70;;
77854;SDS011;67046;50.088;14.336;2023-02-20T03:26:48;5.80;;;3.90;;
77854;SDS011;67046;50.088;14.336;2023-02-20T03:27:32;4.70;;;3.60;;
77854;SDS011;67046;50.088;14.336;2023-02-20T03:28:12;5.30;;;3.60;;
77854;SDS011;67046;50.088;14.336;2023-02-20T03:28:50;6.40;;;3.80;;
77854;SDS011;67046;50.088;14.336;2023-02-20T03:29:33;4.90;;;3.40;;
77854;SDS011;67046;50.088;14.336;2023-02-20T03:30:14;5.40;;;3.30;;
77854;SDS011;67046;50.088;14.336;2023-02-20T03:30:54;5.50;;;3.50;;
77854;SDS011;67046;50.088;14.336;2023-02-20T03:31:39;5.20;;;3.20;;
77854;SDS011;67046;50.088;14.336;2023-02-20T03:32:42;4.40;;;3.20;;
77854;SDS011;67046;50.088;14.336;2023-02-20T03:33:51;5.00;;;3.30;;
77854;SDS011;67046;50.088;14.336;2023-02-20T03:34:47;6.90;;;4.00;;
77854;SDS011;67046;50.088;14.336;2023-02-20T03:35:41;5.10;;;3.50;;
77854;SDS011;67046;50.088;14.336;2023-02-20T03:36:36;6.10;;;3.80;;
77854;SDS011;67046;50.088;14.336;2023-02-20T03:37:32;6.70;;;4.10;;
77854;SDS011;67046;50.088;14.336;2023-02-20T03:38:26;5.40;;;4.00;;
77854;SDS011;67046;50.088;14.336;2023-02-20T03:39:20;6.40;;;3.80;;
77854;SDS011;67046;50.088;14.336;2023-02-20T03:40:14;6.30;;;3.80;;
77854;SDS011;67046;50.088;14.336;2023-02-20T03:41:06;6.10;;;4.20;;
77854;SDS011;67046;50.088;14.336;2023-02-20T03:42:00;5.80;;;3.90;;
77854;SDS011;67046;50.088;14.336;2023-02-20T03:42:54;5.80;;;3.80;;
77854;SDS011;67046;50.088;14.336;2023-02-20T03:43:48;5.60;;;3.80;;
77854;SDS011;67046;50.088;14.336;2023-02-20T03:44:23;5.20;;;3.50;;
77854;SDS011;67046;50.088;14.336;2023-02-20T03:44:57;7.10;;;4.30;;
77854;SDS011;67046;50.088;14.336;2023-02-20T03:45:31;5.90;;;3.60;;
77854;SDS011;67046;50.088;14.336;2023-02-20T03:46:08;6.00;;;4.10;;
77854;SDS011;67046;50.088;14.336;2023-02-20T03:46:44;6.30;;;4.00;;
77854;SDS011;67046;50.088;14.336;2023-02-20T03:47:19;6.40;;;4.00;;
77854;SDS011;67046;50.088;14.336;2023-02-20T03:47:56;5.30;;;3.60;;
77854;SDS011;67046;50.088;14.336;2023-02-20T03:48:38;5.70;;;4.10;;
77854;SDS011;67046;50.088;14.336;2023-02-20T03:49:12;6.10;;;4.40;;
77854;SDS011;67046;50.088;14.336;2023-02-20T03:49:47;5.20;;;4.00;;
77854;SDS011;67046;50.088;14.336;2023-02-20T03:50:41;4.70;;;3.40;;
77854;SDS011;67046;50.088;14.336;2023-02-20T03:51:32;5.70;;;3.60;;
77854;SDS011;67046;50.088;14.336;2023-02-20T03:52:05;6.10;;;4.20;;
77854;SDS011;67046;50.088;14.336;2023-02-20T03:52:37;6.00;;;3.70;;
77854;SDS011;67046;50.088;14.336;2023-02-20T03:53:10;5.80;;;3.80;;
77854;SDS011;67046;50.088;14.336;2023-02-20T03:53:43;6.20;;;3.60;;
77854;SDS011;67046;50.088;14.336;2023-02-20T03:54:17;5.80;;;3.20;;
77854;SDS011;67046;50.088;14.336;2023-02-20T03:54:50;5.20;;;3.50;;
77854;SDS011;67046;50.088;14.336;2023-02-20T03:55:23;5.80;;;4.00;;
77854;SDS011;67046;50.088;14.336;2023-02-20T03:55:57;6.30;;;3.90;;
77854;SDS011;67046;50.088;14.336;2023-02-20T03:56:34;5.50;;;3.50;;
77854;SDS011;67046;50.088;14.336;2023-02-20T03:57:26;5.90;;;3.90;;
77854;SDS011;67046;50.088;14.336;2023-02-20T03:58:02;6.40;;;3.80;;
77854;SDS011;67046;50.088;14.336;2023-02-20T03:58:40;7.20;;;4.00;;
77854;SDS011;67046;50.088;14.336;2023-02-20T03:59:24;5.60;;;3.80;;
77854;SDS011;67046;50.088;14.336;2023-02-20T04:00:02;6.70;;;3.90;;
77854;SDS011;67046;50.088;14.336;2023-02-20T04:00:39;5.70;;;4.10;;
77854;SDS011;67046;50.088;14.336;2023-02-20T04:01:15;4.80;;;3.30;;
77854;SDS011;67046;50.088;14.336;2023-02-20T04:01:54;6.40;;;4.50;;
77854;SDS011;67046;50.088;14.336;2023-02-20T04:02:33;6.30;;;4.00;;
77854;SDS011;67046;50.088;14.336;2023-02-20T04:03:15;6.90;;;3.90;;
77854;SDS011;67046;50.088;14.336;2023-02-20T04:03:50;6.90;;;3.70;;
77854;SDS011;67046;50.088;14.336;2023-02-20T04:05:08;5.60;;;3.70;;
77854;SDS011;67046;50.088;14.336;2023-02-20T04:05:24;4.70;;;3.60;;
77854;SDS011;67046;50.088;14.336;2023-02-20T04:05:57;5.90;;;4.00;;
77854;SDS011;67046;50.088;14.336;2023-02-20T04:06:32;5.50;;;3.60;;
77854;SDS011;67046;50.088;14.336;2023-02-20T04:07:09;5.50;;;4.00;;
77854;SDS011;67046;50.088;14.336;2023-02-20T04:08:41;5.50;;;3.90;;
77854;SDS011;67046;50.088;14.336;2023-02-20T04:09:16;6.50;;;4.10;;
77854;SDS011;67046;50.088;14.336;2023-02-20T04:09:57;6.50;;;4.20;;
77854;SDS011;67046;50.088;14.336;2023-02-20T04:10:43;6.50;;;4.00;;
77854;SDS011;67046;50.088;14.336;2023-02-20T04:11:21;6.50;;;4.10;;
77854;SDS011;67046;50.088;14.336;2023-02-20T04:11:57;4.90;;;3.40;;
77854;SDS011;67046;50.088;14.336;2023-02-20T04:12:35;6.10;;;3.80;;
77854;SDS011;67046;50.088;14.336;2023-02-20T04:13:11;5.70;;;3.50;;
77854;SDS011;67046;50.088;14.336;2023-02-20T04:13:45;6.70;;;4.10;;
77854;SDS011;67046;50.088;14.336;2023-02-20T04:14:20;6.50;;;4.10;;
77854;SDS011;67046;50.088;14.336;2023-02-20T04:14:55;5.00;;;3.50;;
77854;SDS011;67046;50.088;14.336;2023-02-20T04:15:29;5.60;;;3.90;;
77854;SDS011;67046;50.088;14.336;2023-02-20T04:16:02;5.90;;;4.20;;